EWG610 EDDK-LPMA
Flight info
| Callsign | EWG610 |
|---|---|
| Flight time | N/A |
| Altitude | 30000 |
| Route | NVO2Q NVO Y868 NAVAK Z283 LNO DCT RASCA DCT FAMEN DCT ESTOC/N0451F310 DCT PON DCT DITAL DCT GODIX DCT DIDAK DCT KURIS DCT TERPO DCT ERIGA DCT FUJTI/N0456F330 DCT ATLEN DCT ABUPI DCT VABEM DCT LIDRO |
| Aircraft | A321/M-SDE3FGHIRWY/LB1 |
Departure
| Time | 2026-05-04 11:22 |
|---|---|
| Airport | Cologne Bonn Airport (EDDK) |
Arrival
| Time | N/A |
|---|---|
| Airport | Cristiano Ronaldo International Airport (LPMA) |
| Time | Latitude | Longitude | Altitude | Speed | Heading |
|---|---|---|---|---|---|
| 2026-05-04 11:08 | 50.87802 | 7.12425 | 232 ft | 0 kts | 288° |
| 2026-05-04 11:13 | 50.87795 | 7.12456 | 233 ft | 4 kts | 292° |
| 2026-05-04 11:13 | 50.87784 | 7.12494 | 233 ft | 4 kts | 302° |
| 2026-05-04 11:16 | 50.87746 | 7.12540 | 233 ft | 0 kts | 18° |
| 2026-05-04 11:16 | 50.87754 | 7.12544 | 234 ft | 2 kts | 18° |
| 2026-05-04 11:17 | 50.87773 | 7.12553 | 232 ft | 4 kts | 17° |
| 2026-05-04 11:17 | 50.87807 | 7.12570 | 232 ft | 5 kts | 17° |
| 2026-05-04 11:19 | 50.88010 | 7.12896 | 239 ft | 2 kts | 86° |
| 2026-05-04 11:19 | 50.88012 | 7.12944 | 239 ft | 5 kts | 93° |
| 2026-05-04 11:19 | 50.87991 | 7.12990 | 239 ft | 5 kts | 138° |
| 2026-05-04 11:19 | 50.87985 | 7.12999 | 239 ft | 0 kts | 137° |
| 2026-05-04 11:20 | 50.87946 | 7.13055 | 239 ft | 33 kts | 137° |
| 2026-05-04 11:20 | 50.87603 | 7.13551 | 239 ft | 98 kts | 137° |
| 2026-05-04 11:22 | 50.80720 | 7.23278 | 2511 ft | 233 kts | 139° |
| 2026-05-04 11:22 | 50.79411 | 7.24605 | 3083 ft | 233 kts | 163° |
| 2026-05-04 11:23 | 50.77819 | 7.24878 | 3699 ft | 232 kts | 189° |
| 2026-05-04 11:23 | 50.76316 | 7.23983 | 4236 ft | 233 kts | 216° |
| 2026-05-04 11:24 | 50.73553 | 7.07918 | 7106 ft | 271 kts | 259° |
| 2026-05-04 11:25 | 50.73251 | 7.04988 | 7685 ft | 274 kts | 259° |
| 2026-05-04 11:25 | 50.72943 | 7.02013 | 8226 ft | 276 kts | 259° |
| 2026-05-04 11:25 | 50.72736 | 7.00033 | 8592 ft | 277 kts | 259° |
| 2026-05-04 11:26 | 50.71992 | 6.92945 | 9894 ft | 283 kts | 259° |
| 2026-05-04 11:27 | 50.69358 | 6.68066 | 11557 ft | 361 kts | 258° |
| 2026-05-04 11:28 | 50.68939 | 6.64132 | 12024 ft | 364 kts | 258° |
| 2026-05-04 11:28 | 50.68518 | 6.60194 | 12480 ft | 366 kts | 258° |
| 2026-05-04 11:28 | 50.68236 | 6.57566 | 12790 ft | 367 kts | 258° |
| 2026-05-04 11:28 | 50.67805 | 6.53584 | 13239 ft | 370 kts | 258° |
| 2026-05-04 11:29 | 50.67369 | 6.49575 | 13701 ft | 372 kts | 258° |
| 2026-05-04 11:29 | 50.66931 | 6.45532 | 14114 ft | 374 kts | 258° |
| 2026-05-04 11:29 | 50.66498 | 6.41537 | 14502 ft | 376 kts | 258° |
| 2026-05-04 11:29 | 50.66049 | 6.37422 | 14919 ft | 378 kts | 258° |
| 2026-05-04 11:31 | 50.62842 | 6.08405 | 17637 ft | 391 kts | 257° |
| 2026-05-04 11:33 | 50.59421 | 5.78353 | 19912 ft | 404 kts | 257° |
| 2026-05-04 11:33 | 50.58773 | 5.74061 | 20226 ft | 402 kts | 249° |
| 2026-05-04 11:33 | 50.57675 | 5.70022 | 20543 ft | 401 kts | 239° |
| 2026-05-04 11:34 | 50.56153 | 5.66363 | 20865 ft | 400 kts | 229° |
| 2026-05-04 11:34 | 50.54382 | 5.62993 | 21177 ft | 401 kts | 229° |
| 2026-05-04 11:34 | 50.52602 | 5.59613 | 21494 ft | 402 kts | 229° |
| 2026-05-04 11:34 | 50.50816 | 5.56219 | 21814 ft | 403 kts | 229° |
| 2026-05-04 11:35 | 50.49028 | 5.52820 | 22127 ft | 405 kts | 229° |
| 2026-05-04 11:35 | 50.47259 | 5.49457 | 22430 ft | 406 kts | 229° |
| 2026-05-04 11:35 | 50.45434 | 5.45991 | 22741 ft | 407 kts | 228° |
| 2026-05-04 11:35 | 50.43625 | 5.42560 | 23037 ft | 408 kts | 228° |
| 2026-05-04 11:36 | 50.41811 | 5.39124 | 23337 ft | 410 kts | 228° |
| 2026-05-04 11:36 | 50.39991 | 5.35677 | 23613 ft | 411 kts | 228° |
| 2026-05-04 11:36 | 50.38170 | 5.32233 | 23857 ft | 412 kts | 228° |
| 2026-05-04 11:36 | 50.36336 | 5.28773 | 24111 ft | 413 kts | 228° |
| 2026-05-04 11:37 | 50.34497 | 5.25310 | 24358 ft | 414 kts | 228° |
| 2026-05-04 11:37 | 50.32652 | 5.21846 | 24607 ft | 415 kts | 228° |
| 2026-05-04 11:37 | 50.30826 | 5.18430 | 24847 ft | 416 kts | 228° |
| 2026-05-04 11:37 | 50.28942 | 5.14909 | 25099 ft | 417 kts | 228° |
| 2026-05-04 11:38 | 50.27083 | 5.11434 | 25358 ft | 418 kts | 228° |
| 2026-05-04 11:38 | 50.25219 | 5.07952 | 25626 ft | 419 kts | 228° |
| 2026-05-04 11:38 | 50.23343 | 5.04448 | 25862 ft | 420 kts | 228° |
| 2026-05-04 11:38 | 50.21470 | 5.00950 | 26085 ft | 421 kts | 228° |
| 2026-05-04 11:39 | 50.19588 | 4.97439 | 26321 ft | 422 kts | 228° |
| 2026-05-04 11:39 | 50.17692 | 4.93920 | 26527 ft | 423 kts | 228° |
| 2026-05-04 11:40 | 50.06233 | 4.72703 | 27693 ft | 430 kts | 227° |
| 2026-05-04 11:41 | 50.04297 | 4.69141 | 27898 ft | 430 kts | 227° |
| 2026-05-04 11:41 | 50.02376 | 4.65610 | 28161 ft | 429 kts | 227° |
| 2026-05-04 11:41 | 50.00444 | 4.62061 | 28417 ft | 428 kts | 227° |
| 2026-05-04 11:41 | 49.98523 | 4.58536 | 28660 ft | 427 kts | 228° |
| 2026-05-04 11:42 | 49.96788 | 4.54781 | 28906 ft | 429 kts | 237° |
| 2026-05-04 11:42 | 49.95287 | 4.50774 | 29138 ft | 429 kts | 237° |
| 2026-05-04 11:42 | 49.93793 | 4.46768 | 29380 ft | 428 kts | 237° |
| 2026-05-04 11:42 | 49.92298 | 4.42773 | 29585 ft | 428 kts | 237° |
| 2026-05-04 11:43 | 49.90800 | 4.38790 | 29810 ft | 427 kts | 237° |
| 2026-05-04 11:43 | 49.89302 | 4.34813 | 29986 ft | 427 kts | 237° |
| 2026-05-04 11:43 | 49.87817 | 4.30861 | 30015 ft | 423 kts | 237° |
| 2026-05-04 11:44 | 49.84859 | 4.23009 | 30011 ft | 421 kts | 236° |
| 2026-05-04 11:44 | 49.81914 | 4.15224 | 30010 ft | 422 kts | 236° |
| 2026-05-04 11:45 | 49.78938 | 4.07394 | 30010 ft | 422 kts | 236° |
| 2026-05-04 11:45 | 49.75951 | 3.99560 | 30015 ft | 423 kts | 236° |
| 2026-05-04 11:46 | 49.72954 | 3.91728 | 30014 ft | 424 kts | 236° |
| 2026-05-04 11:46 | 49.69948 | 3.83895 | 30012 ft | 424 kts | 236° |
| 2026-05-04 11:47 | 49.66937 | 3.76059 | 30017 ft | 424 kts | 236° |
| 2026-05-04 11:47 | 49.63922 | 3.68226 | 30013 ft | 425 kts | 236° |
| 2026-05-04 11:48 | 49.60895 | 3.60389 | 30009 ft | 425 kts | 236° |
| 2026-05-04 11:48 | 49.57868 | 3.52576 | 30012 ft | 425 kts | 235° |
| 2026-05-04 11:49 | 49.54807 | 3.44701 | 30013 ft | 426 kts | 235° |
| 2026-05-04 11:49 | 49.51779 | 3.36933 | 30009 ft | 426 kts | 235° |
| 2026-05-04 11:50 | 49.48723 | 3.29127 | 30012 ft | 426 kts | 235° |
| 2026-05-04 11:50 | 49.45655 | 3.21315 | 30009 ft | 427 kts | 235° |
| 2026-05-04 11:51 | 49.42586 | 3.13524 | 30012 ft | 427 kts | 235° |
| 2026-05-04 11:51 | 49.39503 | 3.05723 | 30011 ft | 427 kts | 235° |
| 2026-05-04 11:52 | 49.36421 | 2.97921 | 30012 ft | 427 kts | 235° |
| 2026-05-04 11:52 | 49.33333 | 2.90136 | 30006 ft | 428 kts | 235° |
| 2026-05-04 11:53 | 49.30230 | 2.82343 | 30017 ft | 428 kts | 235° |
| 2026-05-04 11:53 | 49.27120 | 2.74569 | 30004 ft | 428 kts | 235° |
| 2026-05-04 11:55 | 49.14644 | 2.43517 | 30002 ft | 429 kts | 238° |
| 2026-05-04 11:56 | 49.12557 | 2.34937 | 29999 ft | 437 kts | 256° |
| 2026-05-04 11:56 | 49.11839 | 2.27276 | 30002 ft | 439 kts | 258° |
| 2026-05-04 11:57 | 49.10848 | 2.16508 | 29997 ft | 439 kts | 258° |
| 2026-05-04 11:57 | 49.09962 | 2.07292 | 29994 ft | 439 kts | 257° |
| 2026-05-04 11:58 | 49.08102 | 1.98546 | 29994 ft | 432 kts | 242° |
| 2026-05-04 11:58 | 49.05585 | 1.90222 | 29996 ft | 432 kts | 242° |
| 2026-05-04 11:59 | 49.03073 | 1.81881 | 29999 ft | 433 kts | 242° |
| 2026-05-04 11:59 | 49.00564 | 1.73550 | 30008 ft | 433 kts | 242° |
| 2026-05-04 12:00 | 48.98034 | 1.65224 | 30010 ft | 433 kts | 242° |
| 2026-05-04 12:00 | 48.95504 | 1.56902 | 30014 ft | 434 kts | 242° |
| 2026-05-04 12:01 | 48.92960 | 1.48574 | 30013 ft | 434 kts | 242° |
| 2026-05-04 12:02 | 48.84026 | 1.19566 | 30019 ft | 432 kts | 242° |
| 2026-05-04 12:03 | 48.81473 | 1.11332 | 30021 ft | 431 kts | 242° |
| 2026-05-04 12:03 | 48.78912 | 1.03112 | 30017 ft | 430 kts | 242° |
| 2026-05-04 12:04 | 48.76356 | 0.94924 | 30018 ft | 429 kts | 242° |
| 2026-05-04 12:04 | 48.74176 | 0.88183 | 30017 ft | 427 kts | 237° |
| 2026-05-04 12:05 | 48.70560 | 0.79232 | 30006 ft | 426 kts | 236° |
| 2026-05-04 12:05 | 48.67465 | 0.71594 | 30004 ft | 426 kts | 236° |
| 2026-05-04 12:06 | 48.64363 | 0.63966 | 30000 ft | 426 kts | 236° |
| 2026-05-04 12:06 | 48.61254 | 0.56350 | 29995 ft | 426 kts | 236° |
| 2026-05-04 12:07 | 48.58143 | 0.48728 | 29993 ft | 426 kts | 236° |
| 2026-05-04 12:07 | 48.55031 | 0.41124 | 29992 ft | 426 kts | 235° |
| 2026-05-04 12:08 | 48.51913 | 0.33525 | 29992 ft | 425 kts | 235° |
| 2026-05-04 12:08 | 48.49322 | 0.27231 | 29989 ft | 425 kts | 235° |
| 2026-05-04 12:09 | 48.45660 | 0.18397 | 29991 ft | 425 kts | 235° |
| 2026-05-04 12:09 | 48.42533 | 0.10858 | 29993 ft | 424 kts | 235° |
| 2026-05-04 12:10 | 48.39426 | 0.03370 | 29989 ft | 424 kts | 235° |
| 2026-05-04 12:10 | 48.36290 | -0.04136 | 29993 ft | 423 kts | 234° |
| 2026-05-04 12:11 | 48.32928 | -0.11375 | 29997 ft | 422 kts | 230° |
| 2026-05-04 12:11 | 48.29950 | -0.17230 | 29991 ft | 421 kts | 229° |
| 2026-05-04 12:12 | 48.26374 | -0.24188 | 29990 ft | 421 kts | 230° |
| 2026-05-04 12:12 | 48.22859 | -0.31119 | 29992 ft | 420 kts | 230° |
| 2026-05-04 12:14 | 48.08660 | -0.58820 | 29992 ft | 418 kts | 229° |
| 2026-05-04 12:15 | 48.05104 | -0.65702 | 29987 ft | 418 kts | 229° |
| 2026-05-04 12:15 | 48.01550 | -0.72578 | 29988 ft | 418 kts | 229° |
| 2026-05-04 12:16 | 47.97994 | -0.79444 | 29987 ft | 418 kts | 229° |
| 2026-05-04 12:16 | 47.94425 | -0.86312 | 29984 ft | 419 kts | 229° |
| 2026-05-04 12:17 | 47.90859 | -0.93180 | 29983 ft | 419 kts | 229° |
| 2026-05-04 12:17 | 47.87282 | -1.00025 | 29983 ft | 419 kts | 229° |
| 2026-05-04 12:18 | 47.83716 | -1.06819 | 29976 ft | 419 kts | 229° |
| 2026-05-04 12:18 | 47.80103 | -1.13708 | 29975 ft | 419 kts | 229° |
| 2026-05-04 12:19 | 47.76512 | -1.20536 | 29977 ft | 420 kts | 229° |
| 2026-05-04 12:19 | 47.72907 | -1.27371 | 29981 ft | 420 kts | 229° |
| 2026-05-04 12:20 | 47.69294 | -1.34197 | 29985 ft | 420 kts | 228° |
| 2026-05-04 12:20 | 47.65678 | -1.41015 | 29990 ft | 420 kts | 229° |
| 2026-05-04 12:21 | 47.62057 | -1.47823 | 29995 ft | 420 kts | 228° |
| 2026-05-04 12:21 | 47.58396 | -1.54562 | 30001 ft | 420 kts | 226° |
| 2026-05-04 12:22 | 47.54511 | -1.61011 | 30006 ft | 419 kts | 224° |
| 2026-05-04 12:22 | 47.50557 | -1.67327 | 30009 ft | 419 kts | 224° |
| 2026-05-04 12:23 | 47.46653 | -1.73635 | 30015 ft | 419 kts | 225° |
| 2026-05-04 12:23 | 47.42754 | -1.80022 | 30007 ft | 418 kts | 225° |
| 2026-05-04 12:24 | 47.38859 | -1.86400 | 30011 ft | 418 kts | 225° |
| 2026-05-04 12:24 | 47.34851 | -1.92567 | 30002 ft | 414 kts | 217° |
| 2026-05-04 12:25 | 47.30057 | -1.97204 | 30007 ft | 412 kts | 209° |
| 2026-05-04 12:25 | 47.25155 | -2.01584 | 29997 ft | 412 kts | 209° |
| 2026-05-04 12:26 | 47.20267 | -2.05978 | 29984 ft | 411 kts | 209° |
| 2026-05-04 12:26 | 47.15384 | -2.10327 | 29979 ft | 411 kts | 209° |
| 2026-05-04 12:27 | 47.10482 | -2.14675 | 29981 ft | 412 kts | 209° |
| 2026-05-04 12:27 | 47.05580 | -2.19025 | 29984 ft | 412 kts | 209° |
| 2026-05-04 12:28 | 47.00677 | -2.23371 | 29986 ft | 412 kts | 209° |
| 2026-05-04 12:28 | 46.95768 | -2.27715 | 30001 ft | 412 kts | 209° |
| 2026-05-04 12:29 | 46.90853 | -2.32044 | 30002 ft | 413 kts | 209° |
| 2026-05-04 12:29 | 46.85937 | -2.36363 | 29997 ft | 412 kts | 209° |
| 2026-05-04 12:30 | 46.81016 | -2.40674 | 29994 ft | 412 kts | 209° |
| 2026-05-04 12:30 | 46.76095 | -2.44984 | 29985 ft | 413 kts | 209° |
| 2026-05-04 12:31 | 46.71169 | -2.49303 | 30000 ft | 413 kts | 209° |
| 2026-05-04 12:31 | 46.66238 | -2.53611 | 30001 ft | 413 kts | 209° |
| 2026-05-04 12:32 | 46.58833 | -2.60057 | 29999 ft | 414 kts | 209° |
| 2026-05-04 12:33 | 46.53900 | -2.64347 | 30004 ft | 414 kts | 209° |
| 2026-05-04 12:33 | 46.48956 | -2.68633 | 30008 ft | 414 kts | 209° |
| 2026-05-04 12:34 | 46.44011 | -2.72905 | 30007 ft | 413 kts | 209° |
| 2026-05-04 12:34 | 46.39071 | -2.77158 | 30011 ft | 413 kts | 209° |
| 2026-05-04 12:35 | 46.34121 | -2.81415 | 30012 ft | 413 kts | 209° |
| 2026-05-04 12:35 | 46.29179 | -2.85670 | 30016 ft | 413 kts | 209° |
| 2026-05-04 12:36 | 46.24496 | -2.90462 | 30022 ft | 415 kts | 218° |
| 2026-05-04 12:36 | 46.20105 | -2.95862 | 30027 ft | 414 kts | 218° |
| 2026-05-04 12:37 | 46.15711 | -3.01222 | 30030 ft | 413 kts | 218° |
| 2026-05-04 12:37 | 46.11320 | -3.06558 | 30031 ft | 412 kts | 218° |
| 2026-05-04 12:38 | 46.06939 | -3.11873 | 30035 ft | 411 kts | 218° |
| 2026-05-04 12:38 | 46.02568 | -3.17159 | 30033 ft | 410 kts | 218° |
| 2026-05-04 12:39 | 45.98209 | -3.22437 | 30029 ft | 409 kts | 217° |
| 2026-05-04 12:39 | 45.93848 | -3.27702 | 30022 ft | 409 kts | 217° |
| 2026-05-04 12:40 | 45.89489 | -3.32956 | 30019 ft | 410 kts | 217° |
| 2026-05-04 12:40 | 45.85117 | -3.38211 | 30007 ft | 410 kts | 217° |
| 2026-05-04 12:41 | 45.80744 | -3.43455 | 30001 ft | 411 kts | 217° |
| 2026-05-04 12:41 | 45.76383 | -3.48676 | 29998 ft | 412 kts | 217° |
| 2026-05-04 12:42 | 45.71950 | -3.53968 | 29992 ft | 413 kts | 217° |
| 2026-05-04 12:42 | 45.67529 | -3.59239 | 29983 ft | 414 kts | 217° |
| 2026-05-04 12:43 | 45.63128 | -3.64484 | 29986 ft | 415 kts | 217° |
| 2026-05-04 12:43 | 45.58651 | -3.69796 | 29991 ft | 417 kts | 217° |
| 2026-05-04 12:44 | 45.54206 | -3.75051 | 29992 ft | 418 kts | 217° |
| 2026-05-04 12:44 | 45.49700 | -3.80382 | 29999 ft | 419 kts | 217° |
| 2026-05-04 12:45 | 45.45233 | -3.85647 | 29999 ft | 420 kts | 217° |
| 2026-05-04 12:45 | 45.40720 | -3.90935 | 30000 ft | 420 kts | 217° |
| 2026-05-04 12:46 | 45.36171 | -3.96270 | 30008 ft | 421 kts | 218° |
| 2026-05-04 12:46 | 45.31678 | -4.01539 | 30007 ft | 422 kts | 218° |
| 2026-05-04 12:47 | 45.27886 | -4.05972 | 30015 ft | 422 kts | 218° |
| 2026-05-04 12:47 | 45.22615 | -4.12125 | 30013 ft | 422 kts | 218° |
| 2026-05-04 12:48 | 45.18089 | -4.17409 | 30011 ft | 422 kts | 218° |
| 2026-05-04 12:48 | 45.13552 | -4.22674 | 30012 ft | 422 kts | 218° |
| 2026-05-04 12:49 | 45.09007 | -4.27938 | 30017 ft | 422 kts | 218° |
| 2026-05-04 12:49 | 45.04458 | -4.33203 | 30019 ft | 422 kts | 218° |
| 2026-05-04 12:50 | 44.99908 | -4.38460 | 30022 ft | 423 kts | 218° |
| 2026-05-04 12:50 | 44.95355 | -4.43707 | 30023 ft | 422 kts | 218° |
| 2026-05-04 12:51 | 44.90799 | -4.48947 | 30025 ft | 422 kts | 218° |
| 2026-05-04 12:51 | 44.86240 | -4.54167 | 30023 ft | 422 kts | 218° |
| 2026-05-04 12:52 | 44.81686 | -4.59373 | 30021 ft | 422 kts | 218° |
| 2026-05-04 12:52 | 44.77130 | -4.64576 | 30022 ft | 422 kts | 218° |
| 2026-05-04 12:53 | 44.72571 | -4.69778 | 30022 ft | 422 kts | 218° |
| 2026-05-04 12:53 | 44.68012 | -4.74963 | 30024 ft | 422 kts | 218° |
| 2026-05-04 12:54 | 44.63449 | -4.80146 | 30028 ft | 422 kts | 219° |
| 2026-05-04 12:54 | 44.59658 | -4.84443 | 30036 ft | 421 kts | 219° |
| 2026-05-04 12:55 | 44.54325 | -4.90457 | 30040 ft | 420 kts | 219° |
| 2026-05-04 12:55 | 44.50520 | -4.94697 | 30039 ft | 420 kts | 215° |
| 2026-05-04 12:56 | 44.45598 | -4.99062 | 30037 ft | 419 kts | 212° |
| 2026-05-04 12:56 | 44.40656 | -5.03381 | 30038 ft | 418 kts | 212° |
| 2026-05-04 12:57 | 44.35722 | -5.07696 | 30040 ft | 418 kts | 213° |
| 2026-05-04 12:57 | 44.30802 | -5.11993 | 30040 ft | 417 kts | 212° |
| 2026-05-04 12:58 | 44.25876 | -5.16262 | 30045 ft | 416 kts | 212° |
| 2026-05-04 12:58 | 44.20958 | -5.20524 | 30044 ft | 416 kts | 212° |
| 2026-05-04 12:59 | 44.16050 | -5.24775 | 30041 ft | 415 kts | 212° |
| 2026-05-04 12:59 | 44.11154 | -5.29013 | 30046 ft | 414 kts | 212° |
| 2026-05-04 13:00 | 44.06262 | -5.33227 | 30044 ft | 413 kts | 212° |
| 2026-05-04 13:00 | 44.01372 | -5.37430 | 30045 ft | 413 kts | 212° |
| 2026-05-04 13:01 | 43.96490 | -5.41615 | 30039 ft | 412 kts | 212° |
| 2026-05-04 13:01 | 43.91614 | -5.45793 | 30042 ft | 412 kts | 212° |
| 2026-05-04 13:02 | 43.86741 | -5.49971 | 30044 ft | 411 kts | 212° |
| 2026-05-04 13:02 | 43.81877 | -5.54129 | 30040 ft | 411 kts | 212° |
| 2026-05-04 13:03 | 43.77016 | -5.58276 | 30043 ft | 411 kts | 212° |
| 2026-05-04 13:03 | 43.72140 | -5.62419 | 30041 ft | 411 kts | 212° |
| 2026-05-04 13:04 | 43.67274 | -5.66548 | 30043 ft | 411 kts | 212° |
| 2026-05-04 13:04 | 43.62398 | -5.70678 | 30046 ft | 411 kts | 213° |
| 2026-05-04 13:05 | 43.57521 | -5.74797 | 30052 ft | 411 kts | 213° |
| 2026-05-04 13:05 | 43.52633 | -5.78917 | 30060 ft | 412 kts | 213° |
| 2026-05-04 13:06 | 43.47754 | -5.83031 | 30062 ft | 411 kts | 213° |
| 2026-05-04 13:06 | 43.42870 | -5.87141 | 30064 ft | 411 kts | 213° |
| 2026-05-04 13:07 | 43.37983 | -5.91239 | 30062 ft | 411 kts | 213° |
| 2026-05-04 13:07 | 43.33105 | -5.95318 | 30057 ft | 410 kts | 213° |
| 2026-05-04 13:08 | 43.28227 | -5.99401 | 30048 ft | 410 kts | 213° |
| 2026-05-04 13:08 | 43.23354 | -6.03474 | 30037 ft | 410 kts | 213° |
| 2026-05-04 13:09 | 43.18477 | -6.07539 | 30034 ft | 411 kts | 213° |
| 2026-05-04 13:09 | 43.13594 | -6.11592 | 30024 ft | 410 kts | 213° |
| 2026-05-04 13:10 | 43.08716 | -6.15642 | 30022 ft | 410 kts | 213° |
| 2026-05-04 13:10 | 43.03834 | -6.19690 | 30007 ft | 410 kts | 213° |
| 2026-05-04 13:11 | 42.98954 | -6.23718 | 30010 ft | 410 kts | 213° |
| 2026-05-04 13:11 | 42.94074 | -6.27738 | 30008 ft | 410 kts | 213° |
| 2026-05-04 13:12 | 42.89196 | -6.31749 | 29995 ft | 409 kts | 213° |
| 2026-05-04 13:12 | 42.84319 | -6.35760 | 29994 ft | 409 kts | 213° |
| 2026-05-04 13:13 | 42.79445 | -6.39757 | 29987 ft | 409 kts | 213° |
| 2026-05-04 13:13 | 42.74575 | -6.43752 | 29985 ft | 409 kts | 213° |
| 2026-05-04 13:14 | 42.69692 | -6.47740 | 29982 ft | 409 kts | 213° |
| 2026-05-04 13:14 | 42.64815 | -6.51711 | 29973 ft | 409 kts | 213° |
| 2026-05-04 13:15 | 42.59931 | -6.55684 | 29979 ft | 409 kts | 214° |
| 2026-05-04 13:15 | 42.55052 | -6.59651 | 29980 ft | 409 kts | 214° |
| 2026-05-04 13:16 | 42.50162 | -6.63620 | 29989 ft | 410 kts | 214° |
| 2026-05-04 13:16 | 42.45268 | -6.67585 | 29991 ft | 410 kts | 214° |
| 2026-05-04 13:17 | 42.40369 | -6.71545 | 29998 ft | 410 kts | 214° |
| 2026-05-04 13:17 | 42.35471 | -6.75487 | 29998 ft | 410 kts | 214° |
| 2026-05-04 13:18 | 42.30571 | -6.79433 | 29989 ft | 410 kts | 214° |
| 2026-05-04 13:18 | 42.25675 | -6.83380 | 29997 ft | 410 kts | 214° |
| 2026-05-04 13:19 | 42.20773 | -6.87313 | 29990 ft | 410 kts | 214° |
| 2026-05-04 13:19 | 42.15868 | -6.91230 | 29988 ft | 410 kts | 214° |
| 2026-05-04 13:20 | 42.10958 | -6.95153 | 29988 ft | 410 kts | 214° |
| 2026-05-04 13:20 | 42.06047 | -6.99079 | 30000 ft | 411 kts | 214° |
| 2026-05-04 13:21 | 42.01134 | -7.02997 | 29996 ft | 411 kts | 214° |
| 2026-05-04 13:21 | 41.96211 | -7.06914 | 29996 ft | 411 kts | 214° |
| 2026-05-04 13:22 | 41.91291 | -7.10821 | 29995 ft | 411 kts | 214° |
| 2026-05-04 13:22 | 41.86359 | -7.14732 | 29997 ft | 411 kts | 214° |
| 2026-05-04 13:23 | 41.81429 | -7.18628 | 30000 ft | 412 kts | 214° |
| 2026-05-04 13:23 | 41.76519 | -7.22502 | 29998 ft | 411 kts | 216° |
| 2026-05-04 13:24 | 41.72204 | -7.27374 | 30001 ft | 405 kts | 227° |
| 2026-05-04 13:24 | 41.68172 | -7.32652 | 29995 ft | 406 kts | 227° |
| 2026-05-04 13:25 | 41.62090 | -7.40534 | 29998 ft | 406 kts | 227° |
| 2026-05-04 13:25 | 41.58021 | -7.45784 | 30000 ft | 406 kts | 227° |
| 2026-05-04 13:26 | 41.53957 | -7.51026 | 30000 ft | 407 kts | 227° |
| 2026-05-04 13:26 | 41.50578 | -7.55387 | 30000 ft | 407 kts | 227° |
| 2026-05-04 13:27 | 41.45814 | -7.61532 | 30007 ft | 408 kts | 227° |
| 2026-05-04 13:27 | 41.41729 | -7.66772 | 30014 ft | 408 kts | 227° |
| 2026-05-04 13:28 | 41.37631 | -7.72019 | 30026 ft | 409 kts | 227° |
| 2026-05-04 13:28 | 41.33536 | -7.77255 | 30038 ft | 409 kts | 227° |
| 2026-05-04 13:29 | 41.29426 | -7.82510 | 30042 ft | 409 kts | 228° |
| 2026-05-04 13:29 | 41.25310 | -7.87747 | 30053 ft | 410 kts | 228° |
| 2026-05-04 13:30 | 41.21227 | -7.92943 | 30060 ft | 409 kts | 228° |
| 2026-05-04 13:30 | 41.17780 | -7.97329 | 30064 ft | 410 kts | 228° |
| 2026-05-04 13:31 | 41.12996 | -8.03406 | 30073 ft | 410 kts | 228° |
| 2026-05-04 13:31 | 41.08870 | -8.08614 | 30069 ft | 409 kts | 228° |
| 2026-05-04 13:32 | 41.04744 | -8.13816 | 30070 ft | 409 kts | 228° |
| 2026-05-04 13:32 | 41.00624 | -8.19013 | 30064 ft | 409 kts | 228° |
| 2026-05-04 13:33 | 40.96505 | -8.24199 | 30067 ft | 408 kts | 228° |
| 2026-05-04 13:33 | 40.92390 | -8.29389 | 30074 ft | 409 kts | 228° |
| 2026-05-04 13:34 | 40.88263 | -8.34559 | 30081 ft | 409 kts | 228° |
| 2026-05-04 13:34 | 40.84129 | -8.39725 | 30082 ft | 409 kts | 228° |
| 2026-05-04 13:35 | 40.77930 | -8.47465 | 30077 ft | 409 kts | 228° |
| 2026-05-04 13:36 | 40.73789 | -8.52621 | 30080 ft | 409 kts | 228° |
| 2026-05-04 13:36 | 40.69646 | -8.57772 | 30081 ft | 410 kts | 228° |
| 2026-05-04 13:37 | 40.65497 | -8.62929 | 30084 ft | 410 kts | 228° |
| 2026-05-04 13:37 | 40.61347 | -8.68075 | 30076 ft | 410 kts | 228° |
| 2026-05-04 13:38 | 40.57187 | -8.73221 | 30076 ft | 411 kts | 228° |
| 2026-05-04 13:38 | 40.53022 | -8.78362 | 30084 ft | 411 kts | 228° |
| 2026-05-04 13:39 | 40.49562 | -8.82638 | 30082 ft | 411 kts | 228° |
| 2026-05-04 13:39 | 40.45394 | -8.87780 | 30087 ft | 411 kts | 228° |
| 2026-05-04 13:40 | 40.41218 | -8.92915 | 30084 ft | 412 kts | 228° |
| 2026-05-04 13:40 | 40.37029 | -8.98050 | 30091 ft | 412 kts | 228° |